Time,TemperatureF,DewpointF,PressureIn,WindDirection,WindDirectionDegrees,WindSpeedMPH,WindSpeedGustMPH,Humidity,HourlyPrecipIn,Conditions,Clouds,dailyrainin,SoftwareType,DateUTC
2013-01-18 00:00:00,21.1,7.8,29.76,North,0,0.0,0.0,56,0.00,,,0.00,WUHU216HW,2013-01-18 05:00:00,
2013-01-18 00:01:00,21.1,7.8,29.76,North,0,0.0,0.0,56,0.00,,,0.00,WUHU216HW,2013-01-18 05:01:00,
2013-01-18 00:03:00,20.9,7.6,29.76,North,0,0.0,0.0,56,0.00,,,0.00,WUHU216HW,2013-01-18 05:03:00,
2013-01-18 00:08:00,20.5,7.2,29.76,North,0,0.0,0.0,56,0.00,,,0.00,WUHU216HW,2013-01-18 05:08:00,
2013-01-18 00:13:00,20.3,7.0,29.76,North,0,0.0,0.0,56,0.00,,,0.00,WUHU216HW,2013-01-18 05:13:00,
2013-01-18 00:18:00,20.0,6.7,29.76,North,0,0.0,0.0,56,0.00,,,0.00,WUHU216HW,2013-01-18 05:18:00,
2013-01-18 00:23:00,19.8,6.1,29.76,North,0,0.0,0.0,55,0.00,,,0.00,WUHU216HW,2013-01-18 05:23:00,
2013-01-18 00:28:00,19.6,6.0,29.76,North,0,0.0,0.0,55,0.00,,,0.00,WUHU216HW,2013-01-18 05:28:00,
2013-01-18 00:33:00,19.3,5.6,29.76,North,0,0.0,0.0,55,0.00,,,0.00,WUHU216HW,2013-01-18 05:33:00,
2013-01-18 00:38:00,19.1,5.0,29.76,North,0,0.0,0.0,54,0.00,,,0.00,WUHU216HW,2013-01-18 05:38:00,
2013-01-18 00:43:00,19.1,4.2,29.76,North,0,0.0,0.0,52,0.00,,,0.00,WUHU216HW,2013-01-18 05:43:00,
2013-01-18 00:48:00,19.1,4.2,29.76,North,0,0.0,0.0,52,0.00,,,0.00,WUHU216HW,2013-01-18 05:48:00,
2013-01-18 00:53:00,19.1,3.9,29.77,North,0,0.0,0.0,51,0.00,,,0.00,WUHU216HW,2013-01-18 05:53:00,
2013-01-18 00:58:00,18.9,3.7,29.76,North,0,0.0,0.0,51,0.00,,,0.00,WUHU216HW,2013-01-18 05:58:00,
2013-01-18 01:03:00,18.9,3.3,29.77,North,0,0.0,0.0,50,0.00,,,0.00,WUHU216HW,2013-01-18 06:03:00,
2013-01-18 01:09:00,18.7,3.5,29.77,North,0,0.0,0.0,51,0.00,,,0.00,WUHU216HW,2013-01-18 06:09:00,
2013-01-18 01:14:00,18.5,3.0,29.77,North,0,0.0,0.0,50,0.00,,,0.00,WUHU216HW,2013-01-18 06:14:00,
2013-01-18 01:19:00,18.4,3.3,29.77,North,0,0.0,0.0,51,0.00,,,0.00,WUHU216HW,2013-01-18 06:19:00,
2013-01-18 01:24:00,18.2,2.6,29.77,North,0,0.0,0.0,50,0.00,,,0.00,WUHU216HW,2013-01-18 06:24:00,
2013-01-18 01:29:00,18.0,2.0,29.77,North,0,0.0,0.0,49,0.00,,,0.00,WUHU216HW,2013-01-18 06:29:00,
2013-01-18 01:34:00,17.8,1.9,29.77,North,0,0.0,0.0,49,0.00,,,0.00,WUHU216HW,2013-01-18 06:34:00,
2013-01-18 01:39:00,17.6,1.7,29.77,North,0,0.0,0.0,49,0.00,,,0.00,WUHU216HW,2013-01-18 06:39:00,
2013-01-18 01:44:00,17.6,1.3,29.78,North,0,0.0,0.0,48,0.00,,,0.00,WUHU216HW,2013-01-18 06:44:00,
2013-01-18 01:49:00,17.6,0.7,29.78,North,0,0.0,0.0,47,0.00,,,0.00,WUHU216HW,2013-01-18 06:49:00,
2013-01-18 01:54:00,17.6,0.3,29.78,North,0,0.0,0.0,46,0.00,,,0.00,WUHU216HW,2013-01-18 06:54:00,
2013-01-18 01:59:00,17.5,0.1,29.78,North,0,0.0,0.0,46,0.00,,,0.00,WUHU216HW,2013-01-18 06:59:00,
2013-01-18 02:04:00,17.5,-0.8,29.78,North,0,0.0,0.0,44,0.00,,,0.00,WUHU216HW,2013-01-18 07:04:00,
2013-01-18 02:09:00,17.5,-1.2,29.78,North,0,0.0,0.0,43,0.00,,,0.00,WUHU216HW,2013-01-18 07:09:00,
2013-01-18 02:14:00,17.5,-1.8,29.78,North,0,0.0,0.0,42,0.00,,,0.00,WUHU216HW,2013-01-18 07:14:00,
2013-01-18 02:19:00,17.5,-2.2,29.78,North,0,0.0,0.0,41,0.00,,,0.00,WUHU216HW,2013-01-18 07:19:00,
2013-01-18 02:24:00,17.5,-2.7,29.78,North,0,0.0,0.0,40,0.00,,,0.00,WUHU216HW,2013-01-18 07:24:00,
2013-01-18 02:29:00,17.6,-3.1,29.79,North,0,0.0,0.0,39,0.00,,,0.00,WUHU216HW,2013-01-18 07:29:00,
2013-01-18 02:34:00,17.6,-3.8,29.79,North,0,0.0,0.0,38,0.00,,,0.00,WUHU216HW,2013-01-18 07:34:00,
2013-01-18 02:39:00,17.6,-3.8,29.79,North,0,0.0,0.0,38,0.00,,,0.00,WUHU216HW,2013-01-18 07:39:00,
2013-01-18 02:44:00,17.6,-3.8,29.80,North,0,0.0,0.0,38,0.00,,,0.00,WUHU216HW,2013-01-18 07:44:00,
2013-01-18 02:49:00,17.5,-3.3,29.80,North,0,0.0,0.0,39,0.00,,,0.00,WUHU216HW,2013-01-18 07:49:00,
2013-01-18 02:55:00,17.3,-4.0,29.81,North,0,0.0,0.0,38,0.00,,,0.00,WUHU216HW,2013-01-18 07:55:00,
2013-01-18 03:00:00,17.1,-4.2,29.81,North,0,0.0,0.0,38,0.00,,,0.00,WUHU216HW,2013-01-18 08:00:00,
2013-01-18 03:05:00,17.1,-4.8,29.81,North,0,0.0,0.0,37,0.00,,,0.00,WUHU216HW,2013-01-18 08:05:00,
2013-01-18 03:10:00,17.3,-5.9,29.81,North,0,0.0,0.0,35,0.00,,,0.00,WUHU216HW,2013-01-18 08:10:00,
2013-01-18 03:15:00,17.3,-6.5,29.81,North,0,0.0,0.0,34,0.00,,,0.00,WUHU216HW,2013-01-18 08:15:00,
2013-01-18 03:20:00,17.3,-7.1,29.81,North,0,0.0,0.0,33,0.00,,,0.00,WUHU216HW,2013-01-18 08:20:00,
2013-01-18 03:25:00,17.3,-6.5,29.80,North,0,0.0,0.0,34,0.00,,,0.00,WUHU216HW,2013-01-18 08:25:00,
2013-01-18 03:30:00,17.3,-7.1,29.81,North,0,0.0,0.0,33,0.00,,,0.00,WUHU216HW,2013-01-18 08:30:00,
2013-01-18 03:35:00,17.3,-8.3,29.81,North,0,0.0,0.0,31,0.00,,,0.00,WUHU216HW,2013-01-18 08:35:00,
2013-01-18 03:40:00,17.3,-8.3,29.81,North,0,0.0,0.0,31,0.00,,,0.00,WUHU216HW,2013-01-18 08:40:00,
2013-01-18 03:45:00,17.5,-10.4,29.81,North,0,0.0,0.0,28,0.00,,,0.00,WUHU216HW,2013-01-18 08:45:00,
2013-01-18 03:50:00,17.6,-10.3,29.81,North,0,0.0,0.0,28,0.00,,,0.00,WUHU216HW,2013-01-18 08:50:00,
2013-01-18 03:56:00,17.8,-12.5,29.80,North,0,0.0,0.0,25,0.00,,,0.00,WUHU216HW,2013-01-18 08:56:00,
2013-01-18 04:01:00,18.2,-13.9,29.80,North,0,0.0,0.0,23,0.00,,,0.00,WUHU216HW,2013-01-18 09:01:00,
2013-01-18 04:06:00,18.2,-18.9,29.80,North,0,0.0,0.0,18,0.00,,,0.00,WUHU216HW,2013-01-18 09:06:00,
2013-01-18 04:11:00,18.4,-17.4,29.80,North,0,0.0,0.0,19,0.00,,,0.00,WUHU216HW,2013-01-18 09:11:00,
2013-01-18 04:16:00,18.5,-21.1,29.80,North,0,0.0,0.0,16,0.00,,,0.00,WUHU216HW,2013-01-18 09:16:00,
2013-01-18 04:21:00,18.7,-21.0,29.79,North,0,0.0,0.0,16,0.00,,,0.00,WUHU216HW,2013-01-18 09:21:00,
2013-01-18 04:26:00,18.7,-21.0,29.79,North,0,0.0,0.0,16,0.00,,,0.00,WUHU216HW,2013-01-18 09:26:00,
2013-01-18 04:31:00,18.7,-17.1,29.79,North,0,0.0,0.0,19,0.00,,,0.00,WUHU216HW,2013-01-18 09:31:00,
2013-01-18 04:36:00,18.5,-17.3,29.79,North,0,0.0,0.0,19,0.00,,,0.00,WUHU216HW,2013-01-18 09:36:00,
2013-01-18 04:41:00,18.4,-15.3,29.79,North,0,0.0,0.0,21,0.00,,,0.00,WUHU216HW,2013-01-18 09:41:00,
2013-01-18 04:46:00,18.2,-14.7,29.79,North,0,0.0,0.0,22,0.00,,,0.00,WUHU216HW,2013-01-18 09:46:00,
2013-01-18 04:51:00,18.0,-14.7,29.79,North,0,0.0,0.0,22,0.00,,,0.00,WUHU216HW,2013-01-18 09:51:00,
2013-01-18 04:56:00,17.8,-14.9,29.79,North,0,0.0,0.0,22,0.00,,,0.00,WUHU216HW,2013-01-18 09:56:00,
2013-01-18 05:01:00,18.0,-15.6,29.79,North,0,0.0,0.0,21,0.00,,,0.00,WUHU216HW,2013-01-18 10:01:00,
2013-01-18 05:06:00,18.0,-17.7,29.79,North,0,0.0,0.0,19,0.00,,,0.00,WUHU216HW,2013-01-18 10:06:00,
2013-01-18 05:11:00,18.2,-21.4,29.78,North,0,0.0,0.0,16,0.00,,,0.00,WUHU216HW,2013-01-18 10:11:00,
2013-01-18 05:16:00,18.5,-21.1,29.79,North,0,0.0,0.0,16,0.00,,,0.00,WUHU216HW,2013-01-18 10:16:00,
2013-01-18 05:21:00,18.5,-22.5,29.79,North,0,0.0,0.0,15,0.00,,,0.00,WUHU216HW,2013-01-18 10:21:00,
2013-01-18 05:26:00,18.4,-20.0,29.79,North,0,0.0,0.0,17,0.00,,,0.00,WUHU216HW,2013-01-18 10:26:00,
2013-01-18 05:31:00,18.2,-17.5,29.80,North,0,0.0,0.0,19,0.00,,,0.00,WUHU216HW,2013-01-18 10:31:00,
2013-01-18 05:36:00,18.0,-16.4,29.80,North,0,0.0,0.0,20,0.00,,,0.00,WUHU216HW,2013-01-18 10:36:00,
2013-01-18 05:42:00,18.0,-17.7,29.80,North,0,0.0,0.0,19,0.00,,,0.00,WUHU216HW,2013-01-18 10:42:00,
2013-01-18 05:47:00,17.6,-16.7,29.80,North,0,0.0,0.0,20,0.00,,,0.00,WUHU216HW,2013-01-18 10:47:00,
2013-01-18 05:52:00,17.6,-18.0,29.80,North,0,0.0,0.0,19,0.00,,,0.00,WUHU216HW,2013-01-18 10:52:00,
2013-01-18 05:57:00,18.0,-21.6,29.80,North,0,0.0,0.0,16,0.00,,,0.00,WUHU216HW,2013-01-18 10:57:00,
2013-01-18 06:02:00,18.0,-21.6,29.80,North,0,0.0,0.0,16,0.00,,,0.00,WUHU216HW,2013-01-18 11:02:00,
2013-01-18 06:07:00,17.8,-20.4,29.80,North,0,0.0,0.0,17,0.00,,,0.00,WUHU216HW,2013-01-18 11:07:00,
2013-01-18 06:12:00,17.6,-18.0,29.80,North,0,0.0,0.0,19,0.00,,,0.00,WUHU216HW,2013-01-18 11:12:00,
2013-01-18 06:17:00,17.6,-20.6,29.80,North,0,0.0,0.0,17,0.00,,,0.00,WUHU216HW,2013-01-18 11:17:00,
2013-01-18 06:22:00,17.6,-22.0,29.80,North,0,0.0,0.0,16,0.00,,,0.00,WUHU216HW,2013-01-18 11:22:00,
2013-01-18 06:27:00,17.8,-23.0,29.80,North,0,0.0,0.0,15,0.00,,,0.00,WUHU216HW,2013-01-18 11:27:00,
2013-01-18 06:32:00,18.0,-28.1,29.80,North,0,0.0,0.0,11,0.00,,,0.00,WUHU216HW,2013-01-18 11:32:00,
2013-01-18 06:37:00,18.2,-26.6,29.80,North,0,0.0,0.0,12,0.00,,,0.00,WUHU216HW,2013-01-18 11:37:00,
2013-01-18 06:42:00,18.2,-24.0,29.81,North,0,0.0,0.0,14,0.00,,,0.00,WUHU216HW,2013-01-18 11:42:00,
2013-01-18 06:47:00,18.4,-23.9,29.80,North,0,0.0,0.0,14,0.00,,,0.00,WUHU216HW,2013-01-18 11:47:00,
2013-01-18 06:52:00,18.0,-24.2,29.80,North,0,0.0,0.0,14,0.00,,,0.00,WUHU216HW,2013-01-18 11:52:00,
2013-01-18 06:57:00,18.4,-29.2,29.80,North,0,0.0,0.0,7,0.00,,,0.00,WUHU216HW,2013-01-18 11:57:00,
2013-01-18 07:02:00,18.4,-29.2,29.81,North,0,0.0,0.0,9,0.00,,,0.00,WUHU216HW,2013-01-18 12:02:00,
2013-01-18 07:07:00,18.4,-29.2,29.81,North,0,0.0,0.0,10,0.00,,,0.00,WUHU216HW,2013-01-18 12:07:00,
2013-01-18 07:12:00,18.2,-28.0,29.81,North,0,0.0,0.0,11,0.00,,,0.00,WUHU216HW,2013-01-18 12:12:00,
2013-01-18 07:17:00,18.2,-29.2,29.81,North,0,0.0,0.0,10,0.00,,,0.00,WUHU216HW,2013-01-18 12:17:00,
2013-01-18 07:22:00,18.2,-29.2,29.81,North,0,0.0,0.0,4,0.00,,,0.00,WUHU216HW,2013-01-18 12:22:00,
2013-01-18 07:27:00,18.5,-29.0,29.81,North,0,0.0,0.0,2,0.00,,,0.00,WUHU216HW,2013-01-18 12:27:00,
2013-01-18 07:32:00,18.7,-28.8,29.80,North,0,0.0,0.0,2,0.00,,,0.00,WUHU216HW,2013-01-18 12:32:00,
2013-01-18 07:37:00,18.4,-29.2,29.79,North,0,0.0,0.0,4,0.00,,,0.00,WUHU216HW,2013-01-18 12:37:00,
2013-01-18 07:42:00,18.4,-29.2,29.80,North,0,0.0,0.0,2,0.00,,,0.00,WUHU216HW,2013-01-18 12:42:00,
2013-01-18 07:48:00,18.7,-28.8,29.80,North,0,0.0,0.0,2,0.00,,,0.00,WUHU216HW,2013-01-18 12:48:00,
2013-01-18 07:53:00,18.5,-29.0,29.80,North,0,0.0,0.0,2,0.00,,,0.00,WUHU216HW,2013-01-18 12:53:00,
2013-01-18 07:58:00,18.5,-29.0,29.80,North,0,0.0,0.0,2,0.00,,,0.00,WUHU216HW,2013-01-18 12:58:00,
2013-01-18 08:03:00,18.7,-28.8,29.81,North,0,0.0,0.0,1,0.00,,,0.00,WUHU216HW,2013-01-18 13:03:00,
2013-01-18 08:08:00,18.5,-29.0,29.81,North,0,0.0,0.0,4,0.00,,,0.00,WUHU216HW,2013-01-18 13:08:00,
2013-01-18 08:13:00,18.5,-29.0,29.81,North,0,0.0,0.0,5,0.00,,,0.00,WUHU216HW,2013-01-18 13:13:00,
2013-01-18 08:18:00,18.4,-29.2,29.81,North,0,0.0,0.0,5,0.00,,,0.00,WUHU216HW,2013-01-18 13:18:00,
2013-01-18 08:23:00,18.4,-29.2,29.81,North,0,0.0,0.0,4,0.00,,,0.00,WUHU216HW,2013-01-18 13:23:00,
2013-01-18 08:28:00,18.7,-28.8,29.81,North,0,0.0,0.0,4,0.00,,,0.00,WUHU216HW,2013-01-18 13:28:00,
2013-01-18 08:33:00,19.1,-28.5,29.81,North,0,0.0,0.0,1,0.00,,,0.00,WUHU216HW,2013-01-18 13:33:00,
2013-01-18 08:38:00,20.0,-27.9,29.81,North,0,0.0,0.0,1,0.00,,,0.00,WUHU216HW,2013-01-18 13:38:00,
2013-01-18 08:43:00,21.1,-27.1,29.81,North,0,0.0,0.0,1,0.00,,,0.00,WUHU216HW,2013-01-18 13:43:00,
2013-01-18 08:48:00,22.0,-26.5,29.81,North,0,0.0,0.0,1,0.00,,,0.00,WUHU216HW,2013-01-18 13:48:00,
2013-01-18 08:53:00,23.0,-25.6,29.81,North,0,0.0,0.0,1,0.00,,,0.00,WUHU216HW,2013-01-18 13:53:00,
2013-01-18 08:58:00,24.1,-24.6,29.81,North,0,0.0,0.0,1,0.00,,,0.00,WUHU216HW,2013-01-18 13:58:00,
2013-01-18 09:03:00,25.0,-23.9,29.81,North,0,0.0,0.0,1,0.00,,,0.00,WUHU216HW,2013-01-18 14:03:00,
2013-01-18 09:09:00,25.7,-23.4,29.81,North,0,0.0,0.0,1,0.00,,,0.00,WUHU216HW,2013-01-18 14:09:00,
2013-01-18 09:14:00,26.6,-22.7,29.81,North,0,0.0,0.0,1,0.00,,,0.00,WUHU216HW,2013-01-18 14:14:00,
2013-01-18 09:19:00,27.7,-13.6,29.82,North,0,0.0,0.0,16,0.00,,,0.00,WUHU216HW,2013-01-18 14:19:00,
2013-01-18 09:24:00,29.2,-11.1,29.82,North,0,0.0,0.0,17,0.00,,,0.00,WUHU216HW,2013-01-18 14:24:00,
2013-01-18 09:29:00,29.5,-17.5,29.82,North,0,0.0,0.0,12,0.00,,,0.00,WUHU216HW,2013-01-18 14:29:00,
2013-01-18 09:34:00,30.6,-13.6,29.82,North,0,0.0,0.0,14,0.00,,,0.00,WUHU216HW,2013-01-18 14:34:00,
2013-01-18 09:39:00,31.0,-14.2,29.82,North,0,0.0,0.0,13,0.00,,,0.00,WUHU216HW,2013-01-18 14:39:00,
2013-01-18 09:44:00,31.3,-14.1,29.82,North,0,0.0,0.0,13,0.00,,,0.00,WUHU216HW,2013-01-18 14:44:00,
2013-01-18 09:49:00,31.9,17.0,29.83,North,0,0.0,0.0,54,0.00,,,0.00,WUHU216HW,2013-01-18 14:49:00,
2013-01-18 09:54:00,32.8,19.2,29.83,North,0,0.0,0.0,57,0.00,,,0.00,WUHU216HW,2013-01-18 14:54:00,
2013-01-18 09:59:00,33.7,19.1,29.83,North,0,0.0,0.0,55,0.00,,,0.00,WUHU216HW,2013-01-18 14:59:00,
2013-01-18 10:04:00,33.8,19.7,29.83,North,0,0.0,0.0,56,0.00,,,0.00,WUHU216HW,2013-01-18 15:04:00,
2013-01-18 10:09:00,33.8,19.3,29.83,North,0,0.0,0.0,55,0.00,,,0.00,WUHU216HW,2013-01-18 15:09:00,
2013-01-18 10:14:00,33.7,19.1,29.83,North,0,0.0,0.0,55,0.00,,,0.00,WUHU216HW,2013-01-18 15:14:00,
2013-01-18 10:19:00,34.6,20.0,29.82,North,0,0.0,0.0,55,0.00,,,0.00,WUHU216HW,2013-01-18 15:19:00,
2013-01-18 10:24:00,34.7,19.7,29.82,North,0,0.0,0.0,54,0.00,,,0.00,WUHU216HW,2013-01-18 15:24:00,
2013-01-18 10:29:00,35.5,20.0,29.82,North,0,0.0,0.0,53,0.00,,,0.00,WUHU216HW,2013-01-18 15:29:00,
2013-01-18 10:35:00,35.6,19.4,29.82,North,0,0.0,0.0,51,0.00,,,0.00,WUHU216HW,2013-01-18 15:35:00,
2013-01-18 10:40:00,35.6,20.2,29.82,North,0,0.0,0.0,53,0.00,,,0.00,WUHU216HW,2013-01-18 15:40:00,
2013-01-18 10:45:00,36.4,20.9,29.82,North,0,0.0,0.0,53,0.00,,,0.00,WUHU216HW,2013-01-18 15:45:00,
2013-01-18 10:50:00,35.6,19.8,29.82,North,0,0.0,0.0,52,0.00,,,0.00,WUHU216HW,2013-01-18 15:50:00,
2013-01-18 10:55:00,36.0,20.5,29.82,North,0,0.0,0.0,53,0.00,,,0.00,WUHU216HW,2013-01-18 15:55:00,
2013-01-18 11:00:00,36.7,20.7,29.81,North,0,0.0,0.0,52,0.00,,,0.00,WUHU216HW,2013-01-18 16:00:00,
2013-01-18 11:05:00,37.3,21.3,29.81,North,0,0.0,0.0,52,0.00,,,0.00,WUHU216HW,2013-01-18 16:05:00,
2013-01-18 11:10:00,37.3,20.8,29.81,North,0,0.0,0.0,51,0.00,,,0.00,WUHU216HW,2013-01-18 16:10:00,
2013-01-18 11:15:00,38.0,21.9,29.81,North,0,0.0,0.0,52,0.00,,,0.00,WUHU216HW,2013-01-18 16:15:00,
2013-01-18 11:20:00,38.2,22.1,29.81,North,0,0.0,0.0,52,0.00,,,0.00,WUHU216HW,2013-01-18 16:20:00,
2013-01-18 11:25:00,38.9,21.8,29.81,North,0,0.0,0.0,50,0.00,,,0.00,WUHU216HW,2013-01-18 16:25:00,
2013-01-18 11:30:00,38.5,21.0,29.81,North,0,0.0,0.0,49,0.00,,,0.00,WUHU216HW,2013-01-18 16:30:00,
2013-01-18 11:35:00,38.9,21.3,29.81,North,0,0.0,0.0,49,0.00,,,0.00,WUHU216HW,2013-01-18 16:35:00,
2013-01-18 11:40:00,38.7,21.7,29.80,North,0,0.0,0.0,50,0.00,,,0.00,WUHU216HW,2013-01-18 16:40:00,
2013-01-18 11:45:00,39.4,22.3,29.80,North,0,0.0,0.0,50,0.00,,,0.00,WUHU216HW,2013-01-18 16:45:00,
2013-01-18 11:50:00,38.9,20.8,29.79,North,0,0.0,0.0,48,0.00,,,0.00,WUHU216HW,2013-01-18 16:50:00,
2013-01-18 11:55:00,39.2,21.1,29.79,North,0,0.0,0.0,48,0.00,,,0.00,WUHU216HW,2013-01-18 16:55:00,
2013-01-18 12:00:00,39.2,21.6,29.78,North,0,0.0,0.0,49,0.00,,,0.00,WUHU216HW,2013-01-18 17:00:00,
2013-01-18 12:05:00,39.2,21.1,29.77,North,0,0.0,0.0,48,0.00,,,0.00,WUHU216HW,2013-01-18 17:05:00,
2013-01-18 12:11:00,39.4,22.3,29.77,North,0,0.0,0.0,50,0.00,,,0.00,WUHU216HW,2013-01-18 17:11:00,
2013-01-18 12:16:00,39.2,21.1,29.77,North,0,0.0,0.0,48,0.00,,,0.00,WUHU216HW,2013-01-18 17:16:00,
2013-01-18 12:21:00,39.2,21.1,29.77,North,0,0.0,0.0,48,0.00,,,0.00,WUHU216HW,2013-01-18 17:21:00,
2013-01-18 12:26:00,38.9,20.8,29.77,North,0,0.0,0.0,48,0.00,,,0.00,WUHU216HW,2013-01-18 17:26:00,
2013-01-18 12:31:00,39.6,22.5,29.76,North,0,0.0,0.0,50,0.00,,,0.00,WUHU216HW,2013-01-18 17:31:00,
2013-01-18 12:36:00,39.1,21.0,29.75,North,0,0.0,0.0,48,0.00,,,0.00,WUHU216HW,2013-01-18 17:36:00,
2013-01-18 12:41:00,39.1,21.0,29.75,North,0,0.0,0.0,48,0.00,,,0.00,WUHU216HW,2013-01-18 17:41:00,
2013-01-18 12:46:00,40.0,21.8,29.74,North,0,0.0,0.0,48,0.00,,,0.00,WUHU216HW,2013-01-18 17:46:00,
2013-01-18 12:51:00,40.0,22.2,29.74,North,0,0.0,0.0,49,0.00,,,0.00,WUHU216HW,2013-01-18 17:51:00,
2013-01-18 12:56:00,40.1,22.4,29.74,North,0,0.0,0.0,49,0.00,,,0.00,WUHU216HW,2013-01-18 17:56:00,
2013-01-18 13:01:00,40.5,21.7,29.73,North,0,0.0,0.0,47,0.00,,,0.00,WUHU216HW,2013-01-18 18:01:00,
2013-01-18 13:06:00,41.0,22.2,29.73,North,0,0.0,0.0,47,0.00,,,0.00,WUHU216HW,2013-01-18 18:06:00,
2013-01-18 13:11:00,40.7,21.3,29.73,North,0,0.0,0.0,46,0.00,,,0.00,WUHU216HW,2013-01-18 18:11:00,
2013-01-18 13:16:00,40.5,21.7,29.72,North,0,0.0,0.0,47,0.00,,,0.00,WUHU216HW,2013-01-18 18:16:00,
2013-01-18 13:21:00,41.0,21.7,29.72,North,0,0.0,0.0,46,0.00,,,0.00,WUHU216HW,2013-01-18 18:21:00,
2013-01-18 13:26:00,41.6,22.2,29.72,North,0,0.0,0.0,46,0.00,,,0.00,WUHU216HW,2013-01-18 18:26:00,
2013-01-18 13:31:00,41.8,22.9,29.71,North,0,0.0,0.0,47,0.00,,,0.00,WUHU216HW,2013-01-18 18:31:00,
2013-01-18 13:36:00,42.3,22.3,29.71,North,0,0.0,0.0,45,0.00,,,0.00,WUHU216HW,2013-01-18 18:36:00,
2013-01-18 13:41:00,42.5,22.0,29.71,North,0,0.0,0.0,44,0.00,,,0.00,WUHU216HW,2013-01-18 18:41:00,
2013-01-18 13:46:00,42.8,21.2,29.70,North,0,0.0,0.0,42,0.00,,,0.00,WUHU216HW,2013-01-18 18:46:00,
2013-01-18 13:51:00,42.5,22.5,29.70,North,0,0.0,0.0,45,0.00,,,0.00,WUHU216HW,2013-01-18 18:51:00,
2013-01-18 13:56:00,43.2,22.2,29.69,North,0,0.0,0.0,43,0.00,,,0.00,WUHU216HW,2013-01-18 18:56:00,
2013-01-18 14:02:00,43.6,23.0,29.69,North,0,0.0,0.0,44,0.00,,,0.00,WUHU216HW,2013-01-18 19:02:00,
2013-01-18 14:07:00,43.6,21.3,29.68,North,0,0.0,0.0,41,0.00,,,0.00,WUHU216HW,2013-01-18 19:07:00,
2013-01-18 14:12:00,42.5,19.2,29.68,North,0,0.0,0.0,39,0.00,,,0.00,WUHU216HW,2013-01-18 19:12:00,
2013-01-18 14:17:00,42.8,21.2,29.68,North,0,0.0,0.0,42,0.00,,,0.00,WUHU216HW,2013-01-18 19:17:00,
2013-01-18 14:22:00,43.9,22.8,29.68,North,0,0.0,0.0,43,0.00,,,0.00,WUHU216HW,2013-01-18 19:22:00,
2013-01-18 14:27:00,43.2,20.5,29.68,North,0,0.0,0.0,40,0.00,,,0.00,WUHU216HW,2013-01-18 19:27:00,
2013-01-18 14:32:00,43.2,20.5,29.67,North,0,0.0,0.0,40,0.00,,,0.00,WUHU216HW,2013-01-18 19:32:00,
2013-01-18 14:37:00,43.6,21.9,29.67,North,0,0.0,0.0,42,0.00,,,0.00,WUHU216HW,2013-01-18 19:37:00,
2013-01-18 14:42:00,44.6,21.2,29.66,North,0,0.0,0.0,39,0.00,,,0.00,WUHU216HW,2013-01-18 19:42:00,
2013-01-18 14:47:00,44.8,20.6,29.66,North,0,0.0,0.0,38,0.00,,,0.00,WUHU216HW,2013-01-18 19:47:00,
2013-01-18 14:53:00,44.3,18.8,29.66,North,0,0.0,0.0,36,0.00,,,0.00,WUHU216HW,2013-01-18 19:53:00,
2013-01-18 14:58:00,44.3,18.8,29.66,North,0,0.0,0.0,36,0.00,,,0.00,WUHU216HW,2013-01-18 19:58:00,
2013-01-18 15:03:00,44.3,18.1,29.66,North,0,0.0,0.0,35,0.00,,,0.00,WUHU216HW,2013-01-18 20:03:00,
2013-01-18 15:08:00,44.5,18.3,29.65,North,0,0.0,0.0,35,0.00,,,0.00,WUHU216HW,2013-01-18 20:08:00,
2013-01-18 15:13:00,44.3,18.8,29.65,North,0,0.0,0.0,36,0.00,,,0.00,WUHU216HW,2013-01-18 20:13:00,
2013-01-18 15:18:00,44.6,19.8,29.65,North,0,0.0,0.0,37,0.00,,,0.00,WUHU216HW,2013-01-18 20:18:00,
2013-01-18 15:23:00,44.1,19.3,29.65,North,0,0.0,0.0,37,0.00,,,0.00,WUHU216HW,2013-01-18 20:23:00,
2013-01-18 15:28:00,43.2,19.2,29.65,North,0,0.0,0.0,38,0.00,,,0.00,WUHU216HW,2013-01-18 20:28:00,
2013-01-18 15:33:00,42.7,18.6,29.64,North,0,0.0,0.0,38,0.00,,,0.00,WUHU216HW,2013-01-18 20:33:00,
2013-01-18 15:38:00,42.1,18.8,29.64,North,0,0.0,0.0,39,0.00,,,0.00,WUHU216HW,2013-01-18 20:38:00,
2013-01-18 15:43:00,41.8,18.6,29.64,North,0,0.0,0.0,39,0.00,,,0.00,WUHU216HW,2013-01-18 20:43:00,
2013-01-18 15:48:00,41.6,19.0,29.63,North,0,0.0,0.0,40,0.00,,,0.00,WUHU216HW,2013-01-18 20:48:00,
2013-01-18 15:53:00,41.9,19.4,29.63,North,0,0.0,0.0,40,0.00,,,0.00,WUHU216HW,2013-01-18 20:53:00,
2013-01-18 15:58:00,42.5,19.2,29.63,North,0,0.0,0.0,39,0.00,,,0.00,WUHU216HW,2013-01-18 20:58:00,
2013-01-18 16:03:00,42.5,19.8,29.63,North,0,0.0,0.0,40,0.00,,,0.00,WUHU216HW,2013-01-18 21:03:00,
2013-01-18 16:08:00,42.8,20.2,29.62,North,0,0.0,0.0,40,0.00,,,0.00,WUHU216HW,2013-01-18 21:08:00,
2013-01-18 16:13:00,42.8,19.5,29.62,North,0,0.0,0.0,39,0.00,,,0.00,WUHU216HW,2013-01-18 21:13:00,
2013-01-18 16:18:00,42.7,19.4,29.62,North,0,0.0,0.0,39,0.00,,,0.00,WUHU216HW,2013-01-18 21:18:00,
2013-01-18 16:23:00,42.7,20.0,29.62,North,0,0.0,0.0,40,0.00,,,0.00,WUHU216HW,2013-01-18 21:23:00,
2013-01-18 16:28:00,42.1,19.5,29.61,North,0,0.0,0.0,40,0.00,,,0.00,WUHU216HW,2013-01-18 21:28:00,
2013-01-18 16:33:00,41.6,19.0,29.61,North,0,0.0,0.0,40,0.00,,,0.00,WUHU216HW,2013-01-18 21:33:00,
2013-01-18 16:39:00,41.4,19.4,29.61,North,0,0.0,0.0,41,0.00,,,0.00,WUHU216HW,2013-01-18 21:39:00,
2013-01-18 16:44:00,41.2,19.3,29.60,North,0,0.0,0.0,41,0.00,,,0.00,WUHU216HW,2013-01-18 21:44:00,
2013-01-18 16:49:00,41.0,19.6,29.61,North,0,0.0,0.0,42,0.00,,,0.00,WUHU216HW,2013-01-18 21:49:00,
2013-01-18 16:54:00,41.0,20.1,29.61,North,0,0.0,0.0,43,0.00,,,0.00,WUHU216HW,2013-01-18 21:54:00,
2013-01-18 16:59:00,40.7,19.8,29.60,North,0,0.0,0.0,43,0.00,,,0.00,WUHU216HW,2013-01-18 21:59:00,
2013-01-18 17:04:00,40.7,19.8,29.60,North,0,0.0,0.0,43,0.00,,,0.00,WUHU216HW,2013-01-18 22:04:00,
2013-01-18 17:09:00,40.5,19.6,29.60,North,0,0.0,0.0,43,0.00,,,0.00,WUHU216HW,2013-01-18 22:09:00,
2013-01-18 17:14:00,40.3,19.4,29.60,North,0,0.0,0.0,43,0.00,,,0.00,WUHU216HW,2013-01-18 22:14:00,
2013-01-18 17:19:00,40.3,20.0,29.59,North,0,0.0,0.0,44,0.00,,,0.00,WUHU216HW,2013-01-18 22:19:00,
2013-01-18 17:24:00,40.0,20.2,29.59,North,0,0.0,0.0,45,0.00,,,0.00,WUHU216HW,2013-01-18 22:24:00,
2013-01-18 17:29:00,40.0,20.7,29.59,North,0,0.0,0.0,46,0.00,,,0.00,WUHU216HW,2013-01-18 22:29:00,
2013-01-18 17:34:00,39.6,20.9,29.58,North,0,0.0,0.0,47,0.00,,,0.00,WUHU216HW,2013-01-18 22:34:00,
2013-01-18 17:39:00,39.2,20.6,29.58,North,0,0.0,0.0,47,0.00,,,0.00,WUHU216HW,2013-01-18 22:39:00,
2013-01-18 17:44:00,39.1,21.4,29.58,North,0,0.0,0.0,49,0.00,,,0.00,WUHU216HW,2013-01-18 22:44:00,
2013-01-18 17:50:00,38.7,22.1,29.58,North,0,0.0,0.0,51,0.00,,,0.00,WUHU216HW,2013-01-18 22:50:00,
2013-01-18 17:55:00,38.5,22.8,29.58,North,0,0.0,0.0,53,0.00,,,0.00,WUHU216HW,2013-01-18 22:55:00,
2013-01-18 18:00:00,38.2,22.9,29.58,North,0,0.0,0.0,54,0.00,,,0.00,WUHU216HW,2013-01-18 23:00:00,
2013-01-18 18:05:00,38.0,22.8,29.58,North,0,0.0,0.0,54,0.00,,,0.00,WUHU216HW,2013-01-18 23:05:00,
2013-01-18 18:10:00,37.8,23.1,29.58,North,0,0.0,0.0,55,0.00,,,0.00,WUHU216HW,2013-01-18 23:10:00,
2013-01-18 18:15:00,37.6,22.9,29.58,North,0,0.0,0.0,55,0.00,,,0.00,WUHU216HW,2013-01-18 23:15:00,
2013-01-18 18:20:00,37.6,23.3,29.58,North,0,0.0,0.0,56,0.00,,,0.00,WUHU216HW,2013-01-18 23:20:00,
2013-01-18 18:25:00,37.4,23.1,29.58,North,0,0.0,0.0,56,0.00,,,0.00,WUHU216HW,2013-01-18 23:25:00,
2013-01-18 18:30:00,37.4,23.1,29.58,North,0,0.0,0.0,56,0.00,,,0.00,WUHU216HW,2013-01-18 23:30:00,
2013-01-18 18:35:00,37.3,23.0,29.58,North,0,0.0,0.0,56,0.00,,,0.00,WUHU216HW,2013-01-18 23:35:00,
2013-01-18 18:40:00,37.3,23.0,29.58,North,0,0.0,0.0,56,0.00,,,0.00,WUHU216HW,2013-01-18 23:40:00,
2013-01-18 18:45:00,37.3,23.0,29.58,North,0,0.0,0.0,56,0.00,,,0.00,WUHU216HW,2013-01-18 23:45:00,
2013-01-18 18:50:00,37.1,22.8,29.57,North,0,0.0,0.0,56,0.00,,,0.00,WUHU216HW,2013-01-18 23:50:00,
2013-01-18 18:55:00,37.1,22.8,29.57,North,0,0.0,0.0,56,0.00,,,0.00,WUHU216HW,2013-01-18 23:55:00,
2013-01-18 19:00:00,37.1,22.8,29.58,North,0,0.0,0.0,56,0.00,,,0.00,WUHU216HW,2013-01-19 00:00:00,
2013-01-18 19:05:00,37.1,22.8,29.58,North,0,0.0,0.0,56,0.00,,,0.00,WUHU216HW,2013-01-19 00:05:00,
2013-01-18 19:10:00,37.1,23.2,29.58,North,0,0.0,0.0,57,0.00,,,0.00,WUHU216HW,2013-01-19 00:10:00,
2013-01-18 19:15:00,37.1,23.2,29.57,North,0,0.0,0.0,57,0.00,,,0.00,WUHU216HW,2013-01-19 00:15:00,
2013-01-18 19:21:00,37.1,23.2,29.57,North,0,0.0,0.0,57,0.00,,,0.00,WUHU216HW,2013-01-19 00:21:00,
2013-01-18 19:26:00,37.1,23.2,29.57,North,0,0.0,0.0,57,0.00,,,0.00,WUHU216HW,2013-01-19 00:26:00,
2013-01-18 19:31:00,37.1,23.2,29.57,North,0,0.0,0.0,57,0.00,,,0.00,WUHU216HW,2013-01-19 00:31:00,
2013-01-18 19:36:00,37.1,23.2,29.57,North,0,0.0,0.0,57,0.00,,,0.00,WUHU216HW,2013-01-19 00:36:00,
2013-01-18 19:41:00,37.1,23.2,29.57,North,0,0.0,0.0,57,0.00,,,0.00,WUHU216HW,2013-01-19 00:41:00,
2013-01-18 19:46:00,37.3,23.4,29.57,North,0,0.0,0.0,57,0.00,,,0.00,WUHU216HW,2013-01-19 00:46:00,
2013-01-18 19:51:00,37.1,23.2,29.56,North,0,0.0,0.0,57,0.00,,,0.00,WUHU216HW,2013-01-19 00:51:00,
2013-01-18 19:56:00,37.1,23.2,29.56,North,0,0.0,0.0,57,0.00,,,0.00,WUHU216HW,2013-01-19 00:56:00,
2013-01-18 20:01:00,37.1,23.7,29.56,North,0,0.0,0.0,58,0.00,,,0.00,WUHU216HW,2013-01-19 01:01:00,
2013-01-18 20:06:00,37.1,23.2,29.56,North,0,0.0,0.0,57,0.00,,,0.00,WUHU216HW,2013-01-19 01:06:00,
2013-01-18 20:11:00,36.9,23.5,29.56,North,0,0.0,0.0,58,0.00,,,0.00,WUHU216HW,2013-01-19 01:11:00,
2013-01-18 20:16:00,36.9,23.5,29.55,North,0,0.0,0.0,58,0.00,,,0.00,WUHU216HW,2013-01-19 01:16:00,
2013-01-18 20:22:00,37.1,23.7,29.55,North,0,0.0,0.0,58,0.00,,,0.00,WUHU216HW,2013-01-19 01:22:00,
2013-01-18 20:27:00,37.1,23.2,29.55,North,0,0.0,0.0,57,0.00,,,0.00,WUHU216HW,2013-01-19 01:27:00,
2013-01-18 20:32:00,37.1,23.2,29.55,North,0,0.0,0.0,57,0.00,,,0.00,WUHU216HW,2013-01-19 01:32:00,
2013-01-18 20:37:00,37.1,23.7,29.55,North,0,0.0,0.0,58,0.00,,,0.00,WUHU216HW,2013-01-19 01:37:00,
2013-01-18 20:42:00,36.9,23.5,29.54,North,0,0.0,0.0,58,0.00,,,0.00,WUHU216HW,2013-01-19 01:42:00,
2013-01-18 20:47:00,36.9,23.5,29.54,North,0,0.0,0.0,58,0.00,,,0.00,WUHU216HW,2013-01-19 01:47:00,
2013-01-18 20:52:00,36.9,23.5,29.54,North,0,0.0,0.0,58,0.00,,,0.00,WUHU216HW,2013-01-19 01:52:00,
2013-01-18 20:57:00,36.9,23.5,29.54,North,0,0.0,0.0,58,0.00,,,0.00,WUHU216HW,2013-01-19 01:57:00,
2013-01-18 21:02:00,36.9,23.5,29.54,North,0,0.0,0.0,58,0.00,,,0.00,WUHU216HW,2013-01-19 02:02:00,
2013-01-18 21:07:00,36.9,23.5,29.54,North,0,0.0,0.0,58,0.00,,,0.00,WUHU216HW,2013-01-19 02:07:00,
2013-01-18 21:12:00,36.9,23.5,29.53,North,0,0.0,0.0,58,0.00,,,0.00,WUHU216HW,2013-01-19 02:12:00,
2013-01-18 21:17:00,37.1,23.7,29.53,North,0,0.0,0.0,58,0.00,,,0.00,WUHU216HW,2013-01-19 02:17:00,
2013-01-18 21:22:00,37.3,23.9,29.52,North,0,0.0,0.0,58,0.00,,,0.00,WUHU216HW,2013-01-19 02:22:00,
2013-01-18 21:27:00,37.3,23.9,29.52,North,0,0.0,0.0,58,0.00,,,0.00,WUHU216HW,2013-01-19 02:27:00,
2013-01-18 21:32:00,37.4,23.9,29.52,North,0,0.0,0.0,58,0.00,,,0.00,WUHU216HW,2013-01-19 02:32:00,
2013-01-18 21:37:00,37.4,23.9,29.52,North,0,0.0,0.0,58,0.00,,,0.00,WUHU216HW,2013-01-19 02:37:00,
2013-01-18 21:42:00,37.4,23.9,29.52,North,0,0.0,0.0,58,0.00,,,0.00,WUHU216HW,2013-01-19 02:42:00,
2013-01-18 21:47:00,37.6,23.7,29.51,North,0,0.0,0.0,57,0.00,,,0.00,WUHU216HW,2013-01-19 02:47:00,
2013-01-18 21:52:00,37.8,23.9,29.51,North,0,0.0,0.0,57,0.00,,,0.00,WUHU216HW,2013-01-19 02:52:00,
2013-01-18 21:57:00,37.8,23.9,29.51,North,0,0.0,0.0,57,0.00,,,0.00,WUHU216HW,2013-01-19 02:57:00,
2013-01-18 22:03:00,38.2,24.2,29.51,North,0,0.0,0.0,57,0.00,,,0.00,WUHU216HW,2013-01-19 03:03:00,
2013-01-18 22:08:00,38.0,24.0,29.50,North,0,0.0,0.0,57,0.00,,,0.00,WUHU216HW,2013-01-19 03:08:00,
2013-01-18 22:13:00,38.3,24.4,29.50,North,0,0.0,0.0,57,0.00,,,0.00,WUHU216HW,2013-01-19 03:13:00,
2013-01-18 22:18:00,38.5,24.5,29.50,North,0,0.0,0.0,57,0.00,,,0.00,WUHU216HW,2013-01-19 03:18:00,
2013-01-18 22:23:00,38.5,24.5,29.50,North,0,0.0,0.0,57,0.00,,,0.00,WUHU216HW,2013-01-19 03:23:00,
2013-01-18 22:28:00,38.5,24.1,29.49,North,0,0.0,0.0,56,0.00,,,0.00,WUHU216HW,2013-01-19 03:28:00,
2013-01-18 22:33:00,38.7,24.2,29.49,North,0,0.0,0.0,56,0.00,,,0.00,WUHU216HW,2013-01-19 03:33:00,
2013-01-18 22:38:00,38.9,24.4,29.49,North,0,0.0,0.0,56,0.00,,,0.00,WUHU216HW,2013-01-19 03:38:00,
2013-01-18 22:43:00,38.7,24.2,29.49,North,0,0.0,0.0,56,0.00,,,0.00,WUHU216HW,2013-01-19 03:43:00,
2013-01-18 22:48:00,38.5,24.5,29.49,North,0,0.0,0.0,57,0.00,,,0.00,WUHU216HW,2013-01-19 03:48:00,
2013-01-18 22:53:00,38.5,24.5,29.48,North,0,0.0,0.0,57,0.00,,,0.00,WUHU216HW,2013-01-19 03:53:00,
2013-01-18 22:58:00,38.5,24.5,29.49,North,0,0.0,0.0,57,0.00,,,0.00,WUHU216HW,2013-01-19 03:58:00,
2013-01-18 23:03:00,38.7,24.7,29.48,North,0,0.0,0.0,57,0.00,,,0.00,WUHU216HW,2013-01-19 04:03:00,
2013-01-18 23:08:00,38.5,24.5,29.48,North,0,0.0,0.0,57,0.00,,,0.00,WUHU216HW,2013-01-19 04:08:00,
2013-01-18 23:13:00,38.5,24.5,29.48,North,0,0.0,0.0,57,0.00,,,0.00,WUHU216HW,2013-01-19 04:13:00,
2013-01-18 23:18:00,38.5,24.5,29.48,North,0,0.0,0.0,57,0.00,,,0.00,WUHU216HW,2013-01-19 04:18:00,
2013-01-18 23:23:00,38.7,24.7,29.48,North,0,0.0,0.0,57,0.00,,,0.00,WUHU216HW,2013-01-19 04:23:00,
2013-01-18 23:28:00,38.9,24.4,29.48,North,0,0.0,0.0,56,0.00,,,0.00,WUHU216HW,2013-01-19 04:28:00,
2013-01-18 23:33:00,38.7,24.2,29.48,North,0,0.0,0.0,56,0.00,,,0.00,WUHU216HW,2013-01-19 04:33:00,
2013-01-18 23:38:00,38.7,24.2,29.48,North,0,0.0,0.0,56,0.00,,,0.00,WUHU216HW,2013-01-19 04:38:00,
2013-01-18 23:43:00,38.7,24.7,29.48,North,0,0.0,0.0,57,0.00,,,0.00,WUHU216HW,2013-01-19 04:43:00,
2013-01-18 23:49:00,38.9,24.4,29.48,North,0,0.0,0.0,56,0.00,,,0.00,WUHU216HW,2013-01-19 04:49:00,
2013-01-18 23:54:00,38.9,24.4,29.48,North,0,0.0,0.0,56,0.00,,,0.00,WUHU216HW,2013-01-19 04:54:00,
2013-01-18 23:59:00,38.9,24.4,29.48,North,0,0.0,0.0,56,0.00,,,0.00,WUHU216HW,2013-01-19 04:59:00,